sensor_id;sensor_type;location;lat;lon;timestamp;P1;durP1;ratioP1;P2;durP2;ratioP2
79403;SDS011;68858;48.642;9.142;2023-05-01T00:02:03;8.80;;;8.00;;
79403;SDS011;68858;48.642;9.142;2023-05-01T00:04:28;7.93;;;7.23;;
79403;SDS011;68858;48.642;9.142;2023-05-01T00:06:54;7.73;;;7.00;;
79403;SDS011;68858;48.642;9.142;2023-05-01T00:09:19;10.27;;;8.10;;
79403;SDS011;68858;48.642;9.142;2023-05-01T00:11:45;8.00;;;7.30;;
79403;SDS011;68858;48.642;9.142;2023-05-01T00:14:10;8.40;;;7.70;;
79403;SDS011;68858;48.642;9.142;2023-05-01T00:16:36;8.10;;;7.40;;
79403;SDS011;68858;48.642;9.142;2023-05-01T00:19:02;8.23;;;7.43;;
79403;SDS011;68858;48.642;9.142;2023-05-01T00:21:28;8.37;;;7.57;;
79403;SDS011;68858;48.642;9.142;2023-05-01T00:23:54;8.30;;;7.50;;
79403;SDS011;68858;48.642;9.142;2023-05-01T00:26:20;8.03;;;7.33;;
79403;SDS011;68858;48.642;9.142;2023-05-01T00:28:45;9.17;;;7.73;;
79403;SDS011;68858;48.642;9.142;2023-05-01T00:31:10;8.53;;;7.73;;
79403;SDS011;68858;48.642;9.142;2023-05-01T00:33:36;8.53;;;7.50;;
79403;SDS011;68858;48.642;9.142;2023-05-01T00:36:01;8.63;;;7.80;;
79403;SDS011;68858;48.642;9.142;2023-05-01T00:38:27;8.90;;;8.00;;
79403;SDS011;68858;48.642;9.142;2023-05-01T00:40:52;8.60;;;7.90;;
79403;SDS011;68858;48.642;9.142;2023-05-01T00:43:18;8.33;;;7.63;;
79403;SDS011;68858;48.642;9.142;2023-05-01T00:45:43;10.13;;;8.17;;
79403;SDS011;68858;48.642;9.142;2023-05-01T00:48:10;8.80;;;8.00;;
79403;SDS011;68858;48.642;9.142;2023-05-01T00:50:38;8.50;;;7.60;;
79403;SDS011;68858;48.642;9.142;2023-05-01T00:53:04;8.40;;;7.60;;
79403;SDS011;68858;48.642;9.142;2023-05-01T00:55:30;8.63;;;7.77;;
79403;SDS011;68858;48.642;9.142;2023-05-01T00:57:57;8.33;;;7.63;;
79403;SDS011;68858;48.642;9.142;2023-05-01T01:00:23;8.67;;;7.90;;
79403;SDS011;68858;48.642;9.142;2023-05-01T01:02:48;8.27;;;7.47;;
79403;SDS011;68858;48.642;9.142;2023-05-01T01:05:14;8.63;;;7.83;;
79403;SDS011;68858;48.642;9.142;2023-05-01T01:07:55;9.27;;;7.83;;
79403;SDS011;68858;48.642;9.142;2023-05-01T01:14:02;9.30;;;8.40;;
79403;SDS011;68858;48.642;9.142;2023-05-01T01:16:40;8.20;;;7.50;;
79403;SDS011;68858;48.642;9.142;2023-05-01T01:22:26;8.53;;;7.83;;
79403;SDS011;68858;48.642;9.142;2023-05-01T01:36:26;9.20;;;7.93;;
79403;SDS011;68858;48.642;9.142;2023-05-01T01:39:06;8.47;;;7.67;;
79403;SDS011;68858;48.642;9.142;2023-05-01T01:41:35;8.80;;;8.00;;
79403;SDS011;68858;48.642;9.142;2023-05-01T01:44:08;8.73;;;7.93;;
79403;SDS011;68858;48.642;9.142;2023-05-01T01:46:40;8.53;;;7.60;;
79403;SDS011;68858;48.642;9.142;2023-05-01T01:49:08;8.60;;;7.73;;
79403;SDS011;68858;48.642;9.142;2023-05-01T01:51:38;8.83;;;7.93;;
79403;SDS011;68858;48.642;9.142;2023-05-01T01:54:05;8.40;;;7.60;;
79403;SDS011;68858;48.642;9.142;2023-05-01T01:56:34;8.67;;;7.87;;
79403;SDS011;68858;48.642;9.142;2023-05-01T01:59:01;8.33;;;7.70;;
79403;SDS011;68858;48.642;9.142;2023-05-01T02:01:29;9.20;;;8.40;;
79403;SDS011;68858;48.642;9.142;2023-05-01T02:03:54;9.10;;;8.30;;
79403;SDS011;68858;48.642;9.142;2023-05-01T02:06:21;8.50;;;7.70;;
79403;SDS011;68858;48.642;9.142;2023-05-01T02:08:46;8.37;;;7.67;;
79403;SDS011;68858;48.642;9.142;2023-05-01T02:11:14;9.30;;;7.27;;
79403;SDS011;68858;48.642;9.142;2023-05-01T02:13:43;8.53;;;7.73;;
79403;SDS011;68858;48.642;9.142;2023-05-01T02:16:10;7.87;;;7.17;;
79403;SDS011;68858;48.642;9.142;2023-05-01T02:18:37;8.87;;;7.93;;
79403;SDS011;68858;48.642;9.142;2023-05-01T02:21:03;8.73;;;7.93;;
79403;SDS011;68858;48.642;9.142;2023-05-01T02:23:29;8.47;;;7.77;;
79403;SDS011;68858;48.642;9.142;2023-05-01T02:25:55;8.70;;;7.87;;
79403;SDS011;68858;48.642;9.142;2023-05-01T02:28:22;8.60;;;7.80;;
79403;SDS011;68858;48.642;9.142;2023-05-01T02:30:48;8.00;;;7.30;;
79403;SDS011;68858;48.642;9.142;2023-05-01T02:33:14;8.33;;;7.63;;
79403;SDS011;68858;48.642;9.142;2023-05-01T02:35:39;8.20;;;7.50;;
79403;SDS011;68858;48.642;9.142;2023-05-01T02:38:06;8.77;;;7.97;;
79403;SDS011;68858;48.642;9.142;2023-05-01T02:40:31;8.70;;;7.90;;
79403;SDS011;68858;48.642;9.142;2023-05-01T02:42:58;8.43;;;7.70;;
79403;SDS011;68858;48.642;9.142;2023-05-01T02:45:25;8.90;;;8.10;;
79403;SDS011;68858;48.642;9.142;2023-05-01T02:47:51;8.50;;;7.70;;
79403;SDS011;68858;48.642;9.142;2023-05-01T02:50:20;9.67;;;8.00;;
79403;SDS011;68858;48.642;9.142;2023-05-01T02:52:46;8.03;;;7.33;;
79403;SDS011;68858;48.642;9.142;2023-05-01T02:55:12;8.50;;;7.70;;
79403;SDS011;68858;48.642;9.142;2023-05-01T02:57:37;8.60;;;7.80;;
79403;SDS011;68858;48.642;9.142;2023-05-01T03:00:03;8.20;;;7.50;;
79403;SDS011;68858;48.642;9.142;2023-05-01T03:02:28;9.77;;;8.53;;
79403;SDS011;68858;48.642;9.142;2023-05-01T03:04:54;8.37;;;7.67;;
79403;SDS011;68858;48.642;9.142;2023-05-01T03:07:19;8.30;;;7.60;;
79403;SDS011;68858;48.642;9.142;2023-05-01T03:09:45;8.83;;;8.13;;
79403;SDS011;68858;48.642;9.142;2023-05-01T03:12:10;8.93;;;7.93;;
79403;SDS011;68858;48.642;9.142;2023-05-01T03:14:35;8.70;;;7.90;;
79403;SDS011;68858;48.642;9.142;2023-05-01T03:17:01;8.60;;;7.80;;
79403;SDS011;68858;48.642;9.142;2023-05-01T03:19:27;8.43;;;7.73;;
79403;SDS011;68858;48.642;9.142;2023-05-01T03:21:52;9.77;;;8.47;;
79403;SDS011;68858;48.642;9.142;2023-05-01T03:24:17;9.90;;;8.00;;
79403;SDS011;68858;48.642;9.142;2023-05-01T03:26:43;9.40;;;8.40;;
79403;SDS011;68858;48.642;9.142;2023-05-01T03:29:08;8.33;;;7.53;;
79403;SDS011;68858;48.642;9.142;2023-05-01T03:31:34;7.70;;;7.00;;
79403;SDS011;68858;48.642;9.142;2023-05-01T03:33:59;8.50;;;7.77;;
79403;SDS011;68858;48.642;9.142;2023-05-01T03:36:25;8.83;;;8.03;;
79403;SDS011;68858;48.642;9.142;2023-05-01T03:38:51;8.93;;;8.13;;
79403;SDS011;68858;48.642;9.142;2023-05-01T03:41:16;8.73;;;8.03;;
79403;SDS011;68858;48.642;9.142;2023-05-01T03:43:42;8.17;;;7.33;;
79403;SDS011;68858;48.642;9.142;2023-05-01T03:46:08;8.60;;;7.80;;
79403;SDS011;68858;48.642;9.142;2023-05-01T03:48:33;8.87;;;7.97;;
79403;SDS011;68858;48.642;9.142;2023-05-01T03:50:59;8.83;;;7.80;;
79403;SDS011;68858;48.642;9.142;2023-05-01T03:53:24;9.20;;;8.40;;
79403;SDS011;68858;48.642;9.142;2023-05-01T03:55:49;8.00;;;7.33;;
79403;SDS011;68858;48.642;9.142;2023-05-01T03:58:15;8.97;;;8.07;;
79403;SDS011;68858;48.642;9.142;2023-05-01T04:00:40;8.97;;;8.03;;
79403;SDS011;68858;48.642;9.142;2023-05-01T04:03:06;8.43;;;7.73;;
79403;SDS011;68858;48.642;9.142;2023-05-01T04:05:31;9.60;;;8.77;;
79403;SDS011;68858;48.642;9.142;2023-05-01T04:07:57;9.70;;;8.90;;
79403;SDS011;68858;48.642;9.142;2023-05-01T04:10:23;8.60;;;7.80;;
79403;SDS011;68858;48.642;9.142;2023-05-01T04:12:48;8.73;;;7.93;;
79403;SDS011;68858;48.642;9.142;2023-05-01T04:15:13;8.50;;;7.80;;
79403;SDS011;68858;48.642;9.142;2023-05-01T04:17:39;8.90;;;8.00;;
79403;SDS011;68858;48.642;9.142;2023-05-01T04:20:05;8.30;;;7.60;;
79403;SDS011;68858;48.642;9.142;2023-05-01T04:22:30;8.47;;;7.80;;
79403;SDS011;68858;48.642;9.142;2023-05-01T04:24:56;9.10;;;8.30;;
79403;SDS011;68858;48.642;9.142;2023-05-01T04:27:22;8.93;;;8.03;;
79403;SDS011;68858;48.642;9.142;2023-05-01T04:29:47;8.30;;;7.60;;
79403;SDS011;68858;48.642;9.142;2023-05-01T04:32:16;8.27;;;7.47;;
79403;SDS011;68858;48.642;9.142;2023-05-01T04:34:41;8.00;;;7.30;;
79403;SDS011;68858;48.642;9.142;2023-05-01T04:37:07;8.23;;;7.53;;
79403;SDS011;68858;48.642;9.142;2023-05-01T04:39:34;8.00;;;7.30;;
79403;SDS011;68858;48.642;9.142;2023-05-01T04:42:00;7.53;;;6.83;;
79403;SDS011;68858;48.642;9.142;2023-05-01T04:44:26;8.20;;;7.50;;
79403;SDS011;68858;48.642;9.142;2023-05-01T04:46:51;8.33;;;7.47;;
79403;SDS011;68858;48.642;9.142;2023-05-01T04:49:16;8.63;;;7.87;;
79403;SDS011;68858;48.642;9.142;2023-05-01T04:51:42;8.83;;;8.03;;
79403;SDS011;68858;48.642;9.142;2023-05-01T04:54:07;10.43;;;8.67;;
79403;SDS011;68858;48.642;9.142;2023-05-01T04:56:32;9.80;;;8.90;;
79403;SDS011;68858;48.642;9.142;2023-05-01T04:58:57;9.80;;;9.00;;
79403;SDS011;68858;48.642;9.142;2023-05-01T05:01:23;8.97;;;8.17;;
79403;SDS011;68858;48.642;9.142;2023-05-01T05:03:48;9.33;;;8.43;;
79403;SDS011;68858;48.642;9.142;2023-05-01T05:06:13;8.97;;;8.27;;
79403;SDS011;68858;48.642;9.142;2023-05-01T05:08:39;10.60;;;9.37;;
79403;SDS011;68858;48.642;9.142;2023-05-01T05:11:04;10.67;;;9.77;;
79403;SDS011;68858;48.642;9.142;2023-05-01T05:13:29;10.60;;;9.63;;
79403;SDS011;68858;48.642;9.142;2023-05-01T05:15:56;10.07;;;8.63;;
79403;SDS011;68858;48.642;9.142;2023-05-01T05:18:21;9.27;;;8.47;;
79403;SDS011;68858;48.642;9.142;2023-05-01T05:20:46;9.77;;;8.90;;
79403;SDS011;68858;48.642;9.142;2023-05-01T05:23:12;9.80;;;9.00;;
79403;SDS011;68858;48.642;9.142;2023-05-01T05:25:37;9.40;;;8.57;;
79403;SDS011;68858;48.642;9.142;2023-05-01T05:28:03;9.40;;;8.60;;
79403;SDS011;68858;48.642;9.142;2023-05-01T05:30:28;9.50;;;8.70;;
79403;SDS011;68858;48.642;9.142;2023-05-01T05:32:55;10.80;;;9.80;;
79403;SDS011;68858;48.642;9.142;2023-05-01T05:35:21;10.93;;;9.83;;
79403;SDS011;68858;48.642;9.142;2023-05-01T05:37:47;10.17;;;9.27;;
79403;SDS011;68858;48.642;9.142;2023-05-01T05:40:12;10.67;;;9.57;;
79403;SDS011;68858;48.642;9.142;2023-05-01T05:42:38;11.07;;;9.97;;
79403;SDS011;68858;48.642;9.142;2023-05-01T05:45:03;10.83;;;9.93;;
79403;SDS011;68858;48.642;9.142;2023-05-01T05:47:29;10.90;;;9.90;;
79403;SDS011;68858;48.642;9.142;2023-05-01T05:49:54;9.83;;;8.87;;
79403;SDS011;68858;48.642;9.142;2023-05-01T05:52:20;10.63;;;9.67;;
79403;SDS011;68858;48.642;9.142;2023-05-01T05:54:45;10.10;;;9.20;;
79403;SDS011;68858;48.642;9.142;2023-05-01T05:57:11;10.53;;;9.63;;
79403;SDS011;68858;48.642;9.142;2023-05-01T05:59:36;10.97;;;9.77;;
79403;SDS011;68858;48.642;9.142;2023-05-01T06:02:02;9.83;;;9.03;;
79403;SDS011;68858;48.642;9.142;2023-05-01T06:04:27;10.47;;;9.40;;
79403;SDS011;68858;48.642;9.142;2023-05-01T06:06:52;11.50;;;10.40;;
79403;SDS011;68858;48.642;9.142;2023-05-01T06:09:18;12.30;;;11.10;;
79403;SDS011;68858;48.642;9.142;2023-05-01T06:11:44;11.20;;;10.20;;
79403;SDS011;68858;48.642;9.142;2023-05-01T06:14:10;11.03;;;10.03;;
79403;SDS011;68858;48.642;9.142;2023-05-01T06:16:36;12.00;;;11.00;;
79403;SDS011;68858;48.642;9.142;2023-05-01T06:19:01;11.03;;;9.97;;
79403;SDS011;68858;48.642;9.142;2023-05-01T06:21:27;11.30;;;10.20;;
79403;SDS011;68858;48.642;9.142;2023-05-01T06:23:52;11.37;;;10.47;;
79403;SDS011;68858;48.642;9.142;2023-05-01T06:26:18;11.20;;;10.30;;
79403;SDS011;68858;48.642;9.142;2023-05-01T06:28:43;11.10;;;10.10;;
79403;SDS011;68858;48.642;9.142;2023-05-01T06:31:09;10.47;;;9.57;;
79403;SDS011;68858;48.642;9.142;2023-05-01T06:33:34;11.07;;;10.17;;
79403;SDS011;68858;48.642;9.142;2023-05-01T06:35:59;13.50;;;12.20;;
79403;SDS011;68858;48.642;9.142;2023-05-01T06:38:25;14.17;;;12.77;;
79403;SDS011;68858;48.642;9.142;2023-05-01T06:40:51;17.83;;;13.70;;
79403;SDS011;68858;48.642;9.142;2023-05-01T06:43:16;13.53;;;12.23;;
79403;SDS011;68858;48.642;9.142;2023-05-01T06:45:42;14.30;;;12.33;;
79403;SDS011;68858;48.642;9.142;2023-05-01T06:48:07;14.07;;;12.67;;
79403;SDS011;68858;48.642;9.142;2023-05-01T06:50:33;12.43;;;11.13;;
79403;SDS011;68858;48.642;9.142;2023-05-01T06:52:58;10.63;;;9.63;;
79403;SDS011;68858;48.642;9.142;2023-05-01T06:55:26;11.93;;;9.93;;
79403;SDS011;68858;48.642;9.142;2023-05-01T06:57:55;11.07;;;10.07;;
79403;SDS011;68858;48.642;9.142;2023-05-01T07:00:21;9.67;;;8.60;;
79403;SDS011;68858;48.642;9.142;2023-05-01T07:02:46;9.30;;;8.47;;
79403;SDS011;68858;48.642;9.142;2023-05-01T07:05:12;8.70;;;7.23;;
79403;SDS011;68858;48.642;9.142;2023-05-01T07:07:37;8.63;;;7.93;;
79403;SDS011;68858;48.642;9.142;2023-05-01T07:10:03;9.00;;;8.10;;
79403;SDS011;68858;48.642;9.142;2023-05-01T07:12:28;8.87;;;8.07;;
79403;SDS011;68858;48.642;9.142;2023-05-01T07:14:55;8.87;;;8.10;;
79403;SDS011;68858;48.642;9.142;2023-05-01T07:17:21;8.87;;;8.17;;
79403;SDS011;68858;48.642;9.142;2023-05-01T07:19:46;8.60;;;7.90;;
79403;SDS011;68858;48.642;9.142;2023-05-01T07:22:12;9.53;;;8.67;;
79403;SDS011;68858;48.642;9.142;2023-05-01T07:24:37;8.20;;;7.53;;
79403;SDS011;68858;48.642;9.142;2023-05-01T07:27:06;8.67;;;7.80;;
79403;SDS011;68858;48.642;9.142;2023-05-01T07:29:31;7.73;;;7.13;;
79403;SDS011;68858;48.642;9.142;2023-05-01T07:31:56;7.97;;;7.27;;
79403;SDS011;68858;48.642;9.142;2023-05-01T07:34:21;9.07;;;8.20;;
79403;SDS011;68858;48.642;9.142;2023-05-01T07:36:47;8.43;;;7.73;;
79403;SDS011;68858;48.642;9.142;2023-05-01T07:39:12;8.40;;;7.60;;
79403;SDS011;68858;48.642;9.142;2023-05-01T07:41:38;8.03;;;7.33;;
79403;SDS011;68858;48.642;9.142;2023-05-01T07:44:04;8.23;;;7.53;;
79403;SDS011;68858;48.642;9.142;2023-05-01T07:46:29;8.90;;;8.10;;
79403;SDS011;68858;48.642;9.142;2023-05-01T07:48:54;9.67;;;8.70;;
79403;SDS011;68858;48.642;9.142;2023-05-01T07:51:20;8.20;;;7.50;;
79403;SDS011;68858;48.642;9.142;2023-05-01T07:53:45;9.10;;;8.30;;
79403;SDS011;68858;48.642;9.142;2023-05-01T07:56:11;9.30;;;8.50;;
79403;SDS011;68858;48.642;9.142;2023-05-01T07:58:37;9.13;;;8.40;;
79403;SDS011;68858;48.642;9.142;2023-05-01T08:01:02;8.70;;;7.90;;
79403;SDS011;68858;48.642;9.142;2023-05-01T08:03:30;8.20;;;7.50;;
79403;SDS011;68858;48.642;9.142;2023-05-01T08:05:56;8.10;;;7.40;;
79403;SDS011;68858;48.642;9.142;2023-05-01T08:08:22;8.27;;;7.57;;
79403;SDS011;68858;48.642;9.142;2023-05-01T08:10:47;9.97;;;8.97;;
79403;SDS011;68858;48.642;9.142;2023-05-01T08:13:13;8.83;;;8.03;;
79403;SDS011;68858;48.642;9.142;2023-05-01T08:15:44;8.67;;;7.83;;
79403;SDS011;68858;48.642;9.142;2023-05-01T08:18:12;9.43;;;8.33;;
79403;SDS011;68858;48.642;9.142;2023-05-01T08:20:44;9.03;;;7.67;;
79403;SDS011;68858;48.642;9.142;2023-05-01T08:23:10;8.37;;;7.57;;
79403;SDS011;68858;48.642;9.142;2023-05-01T08:25:36;8.40;;;7.70;;
79403;SDS011;68858;48.642;9.142;2023-05-01T08:28:01;8.80;;;7.73;;
79403;SDS011;68858;48.642;9.142;2023-05-01T08:30:27;8.73;;;8.03;;
79403;SDS011;68858;48.642;9.142;2023-05-01T08:32:52;8.30;;;7.33;;
79403;SDS011;68858;48.642;9.142;2023-05-01T08:35:18;7.70;;;7.00;;
79403;SDS011;68858;48.642;9.142;2023-05-01T08:37:43;7.37;;;6.77;;
79403;SDS011;68858;48.642;9.142;2023-05-01T08:40:09;7.37;;;6.77;;
79403;SDS011;68858;48.642;9.142;2023-05-01T08:42:34;7.10;;;6.60;;
79403;SDS011;68858;48.642;9.142;2023-05-01T08:45:01;7.33;;;6.73;;
79403;SDS011;68858;48.642;9.142;2023-05-01T08:47:28;7.40;;;6.70;;
79403;SDS011;68858;48.642;9.142;2023-05-01T08:49:54;7.00;;;6.30;;
79403;SDS011;68858;48.642;9.142;2023-05-01T08:52:19;7.13;;;6.53;;
79403;SDS011;68858;48.642;9.142;2023-05-01T08:54:46;7.63;;;7.03;;
79403;SDS011;68858;48.642;9.142;2023-05-01T08:57:13;6.93;;;6.30;;
79403;SDS011;68858;48.642;9.142;2023-05-01T08:59:39;6.87;;;6.20;;
79403;SDS011;68858;48.642;9.142;2023-05-01T09:02:06;6.77;;;6.27;;
79403;SDS011;68858;48.642;9.142;2023-05-01T09:04:32;6.77;;;6.17;;
79403;SDS011;68858;48.642;9.142;2023-05-01T09:07:02;6.40;;;5.90;;
79403;SDS011;68858;48.642;9.142;2023-05-01T09:09:28;6.47;;;5.73;;
79403;SDS011;68858;48.642;9.142;2023-05-01T09:14:42;6.27;;;5.77;;
79403;SDS011;68858;48.642;9.142;2023-05-01T09:17:09;6.40;;;5.83;;
79403;SDS011;68858;48.642;9.142;2023-05-01T09:19:34;6.30;;;5.80;;
79403;SDS011;68858;48.642;9.142;2023-05-01T09:22:00;5.70;;;5.20;;
79403;SDS011;68858;48.642;9.142;2023-05-01T09:24:25;6.00;;;5.50;;
79403;SDS011;68858;48.642;9.142;2023-05-01T09:26:52;5.93;;;5.33;;
79403;SDS011;68858;48.642;9.142;2023-05-01T09:29:36;5.73;;;5.23;;
79403;SDS011;68858;48.642;9.142;2023-05-01T09:32:11;6.10;;;5.50;;
79403;SDS011;68858;48.642;9.142;2023-05-01T09:34:52;6.27;;;5.40;;
79403;SDS011;68858;48.642;9.142;2023-05-01T09:37:29;5.43;;;5.03;;
79403;SDS011;68858;48.642;9.142;2023-05-01T09:42:30;4.67;;;4.27;;
79403;SDS011;68858;48.642;9.142;2023-05-01T09:44:59;5.40;;;4.90;;
79403;SDS011;68858;48.642;9.142;2023-05-01T09:47:28;5.40;;;4.90;;
79403;SDS011;68858;48.642;9.142;2023-05-01T09:49:54;5.07;;;4.67;;
79403;SDS011;68858;48.642;9.142;2023-05-01T09:52:21;4.90;;;4.50;;
79403;SDS011;68858;48.642;9.142;2023-05-01T09:54:48;4.83;;;4.53;;
79403;SDS011;68858;48.642;9.142;2023-05-01T09:57:14;4.97;;;4.57;;
79403;SDS011;68858;48.642;9.142;2023-05-01T09:59:39;4.90;;;4.43;;
79403;SDS011;68858;48.642;9.142;2023-05-01T10:02:04;5.07;;;4.33;;
79403;SDS011;68858;48.642;9.142;2023-05-01T10:04:31;5.30;;;4.80;;
79403;SDS011;68858;48.642;9.142;2023-05-01T10:07:18;4.60;;;4.30;;
79403;SDS011;68858;48.642;9.142;2023-05-01T10:09:43;4.60;;;4.27;;
79403;SDS011;68858;48.642;9.142;2023-05-01T10:12:08;4.73;;;4.33;;
79403;SDS011;68858;48.642;9.142;2023-05-01T10:14:47;4.93;;;4.27;;
79403;SDS011;68858;48.642;9.142;2023-05-01T10:17:23;4.50;;;4.20;;
79403;SDS011;68858;48.642;9.142;2023-05-01T10:19:48;4.30;;;4.00;;
79403;SDS011;68858;48.642;9.142;2023-05-01T10:22:15;4.30;;;4.00;;
79403;SDS011;68858;48.642;9.142;2023-05-01T10:24:42;5.27;;;4.13;;
79403;SDS011;68858;48.642;9.142;2023-05-01T10:27:08;4.43;;;4.03;;
79403;SDS011;68858;48.642;9.142;2023-05-01T10:29:34;3.97;;;3.73;;
79403;SDS011;68858;48.642;9.142;2023-05-01T10:32:03;4.20;;;3.80;;
79403;SDS011;68858;48.642;9.142;2023-05-01T10:34:29;4.40;;;3.83;;
79403;SDS011;68858;48.642;9.142;2023-05-01T10:37:07;4.67;;;4.23;;
79403;SDS011;68858;48.642;9.142;2023-05-01T10:39:36;4.23;;;3.93;;
79403;SDS011;68858;48.642;9.142;2023-05-01T10:42:06;4.80;;;4.37;;
79403;SDS011;68858;48.642;9.142;2023-05-01T10:44:38;4.90;;;4.40;;
79403;SDS011;68858;48.642;9.142;2023-05-01T10:55:45;5.43;;;4.17;;
79403;SDS011;68858;48.642;9.142;2023-05-01T10:59:12;4.50;;;4.10;;
79403;SDS011;68858;48.642;9.142;2023-05-01T11:04:44;4.23;;;3.93;;
79403;SDS011;68858;48.642;9.142;2023-05-01T11:12:02;4.53;;;4.10;;
79403;SDS011;68858;48.642;9.142;2023-05-01T11:15:00;4.53;;;4.13;;
79403;SDS011;68858;48.642;9.142;2023-05-01T11:20:06;5.10;;;4.70;;
79403;SDS011;68858;48.642;9.142;2023-05-01T11:22:32;5.43;;;4.93;;
79403;SDS011;68858;48.642;9.142;2023-05-01T11:24:59;5.10;;;4.63;;
79403;SDS011;68858;48.642;9.142;2023-05-01T11:27:25;5.77;;;5.27;;
79403;SDS011;68858;48.642;9.142;2023-05-01T11:29:50;5.27;;;4.87;;
79403;SDS011;68858;48.642;9.142;2023-05-01T11:32:22;5.00;;;4.60;;
79403;SDS011;68858;48.642;9.142;2023-05-01T11:34:48;5.03;;;4.63;;
79403;SDS011;68858;48.642;9.142;2023-05-01T11:37:15;5.37;;;4.87;;
79403;SDS011;68858;48.642;9.142;2023-05-01T11:39:50;5.47;;;5.00;;
79403;SDS011;68858;48.642;9.142;2023-05-01T11:42:19;6.30;;;5.80;;
79403;SDS011;68858;48.642;9.142;2023-05-01T11:45:03;6.90;;;6.30;;
79403;SDS011;68858;48.642;9.142;2023-05-01T11:47:33;7.30;;;6.00;;
79403;SDS011;68858;48.642;9.142;2023-05-01T11:49:59;6.33;;;5.80;;
79403;SDS011;68858;48.642;9.142;2023-05-01T11:52:25;7.00;;;5.90;;
79403;SDS011;68858;48.642;9.142;2023-05-01T11:54:52;6.20;;;5.70;;
79403;SDS011;68858;48.642;9.142;2023-05-01T11:57:18;5.97;;;5.40;;
79403;SDS011;68858;48.642;9.142;2023-05-01T11:59:46;5.77;;;5.27;;
79403;SDS011;68858;48.642;9.142;2023-05-01T12:02:18;5.67;;;5.20;;
79403;SDS011;68858;48.642;9.142;2023-05-01T12:04:44;5.43;;;4.97;;
79403;SDS011;68858;48.642;9.142;2023-05-01T12:07:22;5.57;;;5.10;;
79403;SDS011;68858;48.642;9.142;2023-05-01T12:09:48;5.73;;;5.30;;
79403;SDS011;68858;48.642;9.142;2023-05-01T12:12:15;5.00;;;4.60;;
79403;SDS011;68858;48.642;9.142;2023-05-01T12:14:41;5.50;;;5.00;;
79403;SDS011;68858;48.642;9.142;2023-05-01T12:17:08;4.90;;;4.50;;
79403;SDS011;68858;48.642;9.142;2023-05-01T12:19:44;4.97;;;4.50;;
79403;SDS011;68858;48.642;9.142;2023-05-01T12:22:12;5.17;;;4.77;;
79403;SDS011;68858;48.642;9.142;2023-05-01T12:24:38;4.67;;;4.27;;
79403;SDS011;68858;48.642;9.142;2023-05-01T12:27:12;5.07;;;4.67;;
79403;SDS011;68858;48.642;9.142;2023-05-01T12:29:38;5.07;;;4.60;;
79403;SDS011;68858;48.642;9.142;2023-05-01T12:32:05;4.93;;;4.53;;
79403;SDS011;68858;48.642;9.142;2023-05-01T12:34:31;4.20;;;3.80;;
79403;SDS011;68858;48.642;9.142;2023-05-01T12:36:57;4.93;;;4.53;;
79403;SDS011;68858;48.642;9.142;2023-05-01T12:39:23;4.90;;;4.50;;
79403;SDS011;68858;48.642;9.142;2023-05-01T12:41:51;5.17;;;4.77;;
79403;SDS011;68858;48.642;9.142;2023-05-01T12:44:19;4.73;;;4.40;;
79403;SDS011;68858;48.642;9.142;2023-05-01T12:46:59;4.63;;;4.23;;
79403;SDS011;68858;48.642;9.142;2023-05-01T12:49:26;4.90;;;4.40;;
79403;SDS011;68858;48.642;9.142;2023-05-01T12:51:53;4.70;;;4.30;;
79403;SDS011;68858;48.642;9.142;2023-05-01T12:54:25;4.50;;;4.20;;
79403;SDS011;68858;48.642;9.142;2023-05-01T12:56:52;4.83;;;4.43;;
79403;SDS011;68858;48.642;9.142;2023-05-01T12:59:22;4.50;;;4.20;;
79403;SDS011;68858;48.642;9.142;2023-05-01T13:02:10;5.20;;;4.70;;
79403;SDS011;68858;48.642;9.142;2023-05-01T13:04:35;4.40;;;4.10;;
79403;SDS011;68858;48.642;9.142;2023-05-01T13:07:01;4.80;;;4.03;;
79403;SDS011;68858;48.642;9.142;2023-05-01T13:09:57;5.53;;;5.03;;
79403;SDS011;68858;48.642;9.142;2023-05-01T13:12:23;6.10;;;5.60;;
79403;SDS011;68858;48.642;9.142;2023-05-01T13:14:50;6.33;;;5.83;;
79403;SDS011;68858;48.642;9.142;2023-05-01T13:17:29;7.00;;;6.50;;
79403;SDS011;68858;48.642;9.142;2023-05-01T13:19:59;7.37;;;6.77;;
79403;SDS011;68858;48.642;9.142;2023-05-01T13:22:27;8.00;;;7.30;;
79403;SDS011;68858;48.642;9.142;2023-05-01T13:24:54;8.90;;;8.10;;
79403;SDS011;68858;48.642;9.142;2023-05-01T13:27:20;9.93;;;9.03;;
79403;SDS011;68858;48.642;9.142;2023-05-01T13:29:50;9.43;;;8.63;;
79403;SDS011;68858;48.642;9.142;2023-05-01T13:32:18;10.90;;;10.00;;
79403;SDS011;68858;48.642;9.142;2023-05-01T13:34:44;11.37;;;10.20;;
79403;SDS011;68858;48.642;9.142;2023-05-01T13:37:09;10.83;;;9.93;;
79403;SDS011;68858;48.642;9.142;2023-05-01T13:39:41;11.23;;;10.33;;
79403;SDS011;68858;48.642;9.142;2023-05-01T13:42:07;11.20;;;10.20;;
79403;SDS011;68858;48.642;9.142;2023-05-01T13:44:41;11.30;;;10.30;;
79403;SDS011;68858;48.642;9.142;2023-05-01T13:47:08;12.13;;;10.90;;
79403;SDS011;68858;48.642;9.142;2023-05-01T13:49:34;11.57;;;10.60;;
79403;SDS011;68858;48.642;9.142;2023-05-01T13:51:59;12.43;;;11.23;;
79403;SDS011;68858;48.642;9.142;2023-05-01T13:55:23;13.17;;;12.07;;
79403;SDS011;68858;48.642;9.142;2023-05-01T13:57:59;13.47;;;12.23;;
79403;SDS011;68858;48.642;9.142;2023-05-01T14:01:23;12.47;;;11.43;;
79403;SDS011;68858;48.642;9.142;2023-05-01T14:03:50;14.67;;;13.47;;
79403;SDS011;68858;48.642;9.142;2023-05-01T14:06:18;16.07;;;14.67;;
79403;SDS011;68858;48.642;9.142;2023-05-01T14:08:44;15.77;;;14.47;;
79403;SDS011;68858;48.642;9.142;2023-05-01T14:11:11;14.50;;;13.30;;
79403;SDS011;68858;48.642;9.142;2023-05-01T14:13:45;12.87;;;11.77;;
79403;SDS011;68858;48.642;9.142;2023-05-01T14:16:25;15.70;;;14.30;;
79403;SDS011;68858;48.642;9.142;2023-05-01T14:18:52;15.87;;;14.53;;
79403;SDS011;68858;48.642;9.142;2023-05-01T14:21:21;14.77;;;13.43;;
79403;SDS011;68858;48.642;9.142;2023-05-01T14:23:48;15.43;;;14.03;;
79403;SDS011;68858;48.642;9.142;2023-05-01T14:26:19;14.37;;;13.07;;
79403;SDS011;68858;48.642;9.142;2023-05-01T14:28:45;15.43;;;14.13;;
79403;SDS011;68858;48.642;9.142;2023-05-01T14:33:57;13.43;;;12.27;;
79403;SDS011;68858;48.642;9.142;2023-05-01T14:36:24;12.93;;;11.80;;
79403;SDS011;68858;48.642;9.142;2023-05-01T14:38:50;13.17;;;11.97;;
79403;SDS011;68858;48.642;9.142;2023-05-01T14:41:16;12.73;;;11.63;;
79403;SDS011;68858;48.642;9.142;2023-05-01T14:43:44;13.37;;;12.10;;
79403;SDS011;68858;48.642;9.142;2023-05-01T14:46:14;11.60;;;10.47;;
79403;SDS011;68858;48.642;9.142;2023-05-01T14:48:40;11.77;;;10.87;;
79403;SDS011;68858;48.642;9.142;2023-05-01T14:51:10;12.37;;;11.37;;
79403;SDS011;68858;48.642;9.142;2023-05-01T14:53:38;12.53;;;11.43;;
79403;SDS011;68858;48.642;9.142;2023-05-01T14:56:05;16.93;;;15.43;;
79403;SDS011;68858;48.642;9.142;2023-05-01T14:58:31;18.33;;;16.63;;
79403;SDS011;68858;48.642;9.142;2023-05-01T15:00:56;15.10;;;13.67;;
79403;SDS011;68858;48.642;9.142;2023-05-01T15:03:22;17.20;;;15.60;;
79403;SDS011;68858;48.642;9.142;2023-05-01T15:05:47;17.83;;;16.00;;
79403;SDS011;68858;48.642;9.142;2023-05-01T15:08:13;18.63;;;16.83;;
79403;SDS011;68858;48.642;9.142;2023-05-01T15:10:38;18.77;;;17.03;;
79403;SDS011;68858;48.642;9.142;2023-05-01T15:13:03;12.37;;;11.17;;
79403;SDS011;68858;48.642;9.142;2023-05-01T15:15:30;16.27;;;14.63;;
79403;SDS011;68858;48.642;9.142;2023-05-01T15:17:55;11.00;;;9.90;;
79403;SDS011;68858;48.642;9.142;2023-05-01T15:20:21;11.43;;;10.30;;
79403;SDS011;68858;48.642;9.142;2023-05-01T15:22:47;10.37;;;9.43;;
79403;SDS011;68858;48.642;9.142;2023-05-01T15:25:12;11.60;;;10.57;;
79403;SDS011;68858;48.642;9.142;2023-05-01T15:27:38;34.10;;;30.83;;
79403;SDS011;68858;48.642;9.142;2023-05-01T15:30:04;28.33;;;25.57;;
79403;SDS011;68858;48.642;9.142;2023-05-01T15:32:30;9.70;;;8.80;;